sensor_id;sensor_type;location;lat;lon;timestamp;pressure;altitude;pressure_sealevel;temperature;humidity
76124;BME280;65173;48.066;20.976;2023-09-07T00:02:32;101138.25;;;14.94;100.00
76124;BME280;65173;48.066;20.976;2023-09-07T00:05:42;101133.41;;;14.79;100.00
76124;BME280;65173;48.066;20.976;2023-09-07T00:08:44;101138.88;;;14.91;100.00
76124;BME280;65173;48.066;20.976;2023-09-07T00:11:47;101137.66;;;14.80;100.00
76124;BME280;65173;48.066;20.976;2023-09-07T00:14:49;101147.41;;;14.93;100.00
76124;BME280;65173;48.066;20.976;2023-09-07T00:17:52;101146.03;;;14.78;100.00
76124;BME280;65173;48.066;20.976;2023-09-07T00:20:54;101144.25;;;14.91;100.00
76124;BME280;65173;48.066;20.976;2023-09-07T00:23:57;101144.88;;;14.88;100.00
76124;BME280;65173;48.066;20.976;2023-09-07T00:26:59;101144.59;;;14.81;100.00
76124;BME280;65173;48.066;20.976;2023-09-07T00:30:02;101142.53;;;14.86;100.00
76124;BME280;65173;48.066;20.976;2023-09-07T00:33:07;101136.88;;;14.79;100.00
76124;BME280;65173;48.066;20.976;2023-09-07T00:36:09;101148.59;;;14.66;100.00
76124;BME280;65173;48.066;20.976;2023-09-07T00:39:12;101141.75;;;14.77;100.00
76124;BME280;65173;48.066;20.976;2023-09-07T00:42:14;101140.03;;;14.73;100.00
76124;BME280;65173;48.066;20.976;2023-09-07T00:45:17;101145.59;;;14.68;100.00
76124;BME280;65173;48.066;20.976;2023-09-07T00:48:20;101141.97;;;14.64;100.00
76124;BME280;65173;48.066;20.976;2023-09-07T00:51:24;101137.84;;;14.66;100.00
76124;BME280;65173;48.066;20.976;2023-09-07T00:54:27;101134.06;;;14.58;100.00
76124;BME280;65173;48.066;20.976;2023-09-07T00:57:30;101130.13;;;14.65;100.00
76124;BME280;65173;48.066;20.976;2023-09-07T01:00:34;101132.59;;;14.70;100.00
76124;BME280;65173;48.066;20.976;2023-09-07T01:03:36;101136.13;;;14.62;100.00
76124;BME280;65173;48.066;20.976;2023-09-07T01:06:51;101131.38;;;14.58;100.00
76124;BME280;65173;48.066;20.976;2023-09-07T01:09:56;101130.91;;;14.65;100.00
76124;BME280;65173;48.066;20.976;2023-09-07T01:13:00;101128.38;;;14.60;100.00
76124;BME280;65173;48.066;20.976;2023-09-07T01:16:03;101126.84;;;14.50;100.00
76124;BME280;65173;48.066;20.976;2023-09-07T01:19:06;101136.00;;;14.49;100.00
76124;BME280;65173;48.066;20.976;2023-09-07T01:22:09;101127.28;;;14.52;100.00
76124;BME280;65173;48.066;20.976;2023-09-07T01:25:13;101130.91;;;14.56;100.00
76124;BME280;65173;48.066;20.976;2023-09-07T01:28:15;101134.22;;;14.53;100.00
76124;BME280;65173;48.066;20.976;2023-09-07T01:31:18;101127.47;;;14.47;100.00
76124;BME280;65173;48.066;20.976;2023-09-07T01:34:22;101131.06;;;14.60;100.00
76124;BME280;65173;48.066;20.976;2023-09-07T01:37:24;101129.50;;;14.68;100.00
76124;BME280;65173;48.066;20.976;2023-09-07T01:40:27;101136.28;;;14.65;100.00
76124;BME280;65173;48.066;20.976;2023-09-07T01:43:30;101134.53;;;14.52;100.00
76124;BME280;65173;48.066;20.976;2023-09-07T01:46:33;101140.09;;;14.47;100.00
76124;BME280;65173;48.066;20.976;2023-09-07T01:49:35;101127.94;;;14.32;100.00
76124;BME280;65173;48.066;20.976;2023-09-07T01:52:38;101142.88;;;14.33;100.00
76124;BME280;65173;48.066;20.976;2023-09-07T01:55:40;101135.81;;;14.20;100.00
76124;BME280;65173;48.066;20.976;2023-09-07T01:58:43;101134.72;;;14.30;100.00
76124;BME280;65173;48.066;20.976;2023-09-07T02:01:46;101131.84;;;14.17;100.00
76124;BME280;65173;48.066;20.976;2023-09-07T02:04:49;101133.44;;;14.18;100.00
76124;BME280;65173;48.066;20.976;2023-09-07T02:07:51;101149.69;;;14.05;100.00
76124;BME280;65173;48.066;20.976;2023-09-07T02:10:54;101136.13;;;14.18;100.00
76124;BME280;65173;48.066;20.976;2023-09-07T02:13:58;101148.72;;;14.18;100.00
76124;BME280;65173;48.066;20.976;2023-09-07T02:17:01;101142.75;;;14.21;100.00
76124;BME280;65173;48.066;20.976;2023-09-07T02:20:04;101144.47;;;14.25;100.00
76124;BME280;65173;48.066;20.976;2023-09-07T02:23:13;101143.06;;;14.11;100.00
76124;BME280;65173;48.066;20.976;2023-09-07T02:26:16;101149.38;;;14.15;100.00
76124;BME280;65173;48.066;20.976;2023-09-07T02:29:19;101145.56;;;14.16;100.00
76124;BME280;65173;48.066;20.976;2023-09-07T02:32:22;101144.66;;;14.12;100.00
76124;BME280;65173;48.066;20.976;2023-09-07T02:35:24;101147.16;;;14.08;100.00
76124;BME280;65173;48.066;20.976;2023-09-07T02:38:27;101139.41;;;13.98;100.00
76124;BME280;65173;48.066;20.976;2023-09-07T02:41:31;101141.47;;;13.93;100.00
76124;BME280;65173;48.066;20.976;2023-09-07T02:44:34;101151.09;;;13.94;100.00
76124;BME280;65173;48.066;20.976;2023-09-07T02:47:37;101147.94;;;13.92;100.00
76124;BME280;65173;48.066;20.976;2023-09-07T02:50:39;101152.03;;;13.89;100.00
76124;BME280;65173;48.066;20.976;2023-09-07T02:53:42;101155.34;;;13.95;100.00
76124;BME280;65173;48.066;20.976;2023-09-07T02:56:45;101152.97;;;13.84;100.00
76124;BME280;65173;48.066;20.976;2023-09-07T02:59:48;101159.59;;;13.87;100.00
76124;BME280;65173;48.066;20.976;2023-09-07T03:02:51;101153.91;;;13.80;100.00
76124;BME280;65173;48.066;20.976;2023-09-07T03:05:53;101160.53;;;13.82;100.00
76124;BME280;65173;48.066;20.976;2023-09-07T03:08:57;101154.09;;;13.92;100.00
76124;BME280;65173;48.066;20.976;2023-09-07T03:11:59;101153.59;;;13.81;100.00
76124;BME280;65173;48.066;20.976;2023-09-07T03:15:04;101160.22;;;13.75;100.00
76124;BME280;65173;48.066;20.976;2023-09-07T03:18:07;101164.94;;;13.78;100.00
76124;BME280;65173;48.066;20.976;2023-09-07T03:21:11;101163.50;;;13.72;100.00
76124;BME280;65173;48.066;20.976;2023-09-07T03:24:13;101158.16;;;13.72;100.00
76124;BME280;65173;48.066;20.976;2023-09-07T03:27:18;101165.75;;;13.79;100.00
76124;BME280;65173;48.066;20.976;2023-09-07T03:30:20;101168.25;;;13.75;100.00
76124;BME280;65173;48.066;20.976;2023-09-07T03:33:23;101164.94;;;13.78;100.00
76124;BME280;65173;48.066;20.976;2023-09-07T03:36:25;101171.09;;;13.79;100.00
76124;BME280;65173;48.066;20.976;2023-09-07T03:39:28;101176.78;;;13.77;100.00
76124;BME280;65173;48.066;20.976;2023-09-07T03:42:30;101178.31;;;13.70;100.00
76124;BME280;65173;48.066;20.976;2023-09-07T03:45:35;101176.72;;;13.60;100.00
76124;BME280;65173;48.066;20.976;2023-09-07T03:48:38;101188.25;;;13.69;100.00
76124;BME280;65173;48.066;20.976;2023-09-07T03:51:43;101193.59;;;13.69;100.00
76124;BME280;65173;48.066;20.976;2023-09-07T03:54:46;101191.88;;;13.73;100.00
76124;BME280;65173;48.066;20.976;2023-09-07T03:57:48;101192.66;;;13.74;100.00
76124;BME280;65173;48.066;20.976;2023-09-07T04:00:51;101193.78;;;13.73;100.00
76124;BME280;65173;48.066;20.976;2023-09-07T04:03:54;101198.16;;;13.60;100.00
76124;BME280;65173;48.066;20.976;2023-09-07T04:06:56;101196.16;;;13.74;100.00
76124;BME280;65173;48.066;20.976;2023-09-07T04:09:59;101197.91;;;13.79;100.00
76124;BME280;65173;48.066;20.976;2023-09-07T04:13:01;101204.34;;;13.86;100.00
76124;BME280;65173;48.066;20.976;2023-09-07T04:16:05;101203.09;;;13.84;100.00
76124;BME280;65173;48.066;20.976;2023-09-07T04:19:07;101205.94;;;13.87;100.00
76124;BME280;65173;48.066;20.976;2023-09-07T04:22:11;101205.16;;;13.78;100.00
76124;BME280;65173;48.066;20.976;2023-09-07T04:25:14;101203.56;;;13.86;100.00
76124;BME280;65173;48.066;20.976;2023-09-07T04:28:16;101207.81;;;13.78;100.00
76124;BME280;65173;48.066;20.976;2023-09-07T04:31:20;101200.91;;;13.95;100.00
76124;BME280;65173;48.066;20.976;2023-09-07T04:34:23;101208.66;;;13.96;100.00
76124;BME280;65173;48.066;20.976;2023-09-07T04:37:28;101205.19;;;13.96;100.00
76124;BME280;65173;48.066;20.976;2023-09-07T04:40:30;101204.53;;;13.90;100.00
76124;BME280;65173;48.066;20.976;2023-09-07T04:43:33;101209.59;;;13.92;100.00
76124;BME280;65173;48.066;20.976;2023-09-07T04:46:36;101208.78;;;14.00;100.00
76124;BME280;65173;48.066;20.976;2023-09-07T04:49:39;101206.59;;;14.02;100.00
76124;BME280;65173;48.066;20.976;2023-09-07T04:52:42;101211.81;;;14.07;100.00
76124;BME280;65173;48.066;20.976;2023-09-07T04:55:45;101215.94;;;14.13;100.00
76124;BME280;65173;48.066;20.976;2023-09-07T04:58:47;101204.91;;;14.14;100.00
76124;BME280;65173;48.066;20.976;2023-09-07T05:01:50;101210.72;;;14.25;100.00
76124;BME280;65173;48.066;20.976;2023-09-07T05:04:53;101210.28;;;14.32;100.00
76124;BME280;65173;48.066;20.976;2023-09-07T05:07:55;101210.78;;;14.42;100.00
76124;BME280;65173;48.066;20.976;2023-09-07T05:11:02;101219.28;;;14.62;100.00
76124;BME280;65173;48.066;20.976;2023-09-07T05:14:05;101224.81;;;14.82;100.00
76124;BME280;65173;48.066;20.976;2023-09-07T05:17:08;101227.78;;;14.98;100.00
76124;BME280;65173;48.066;20.976;2023-09-07T05:20:11;101226.09;;;15.32;100.00
76124;BME280;65173;48.066;20.976;2023-09-07T05:23:20;101224.94;;;15.50;100.00
76124;BME280;65173;48.066;20.976;2023-09-07T05:26:23;101222.56;;;15.86;100.00
76124;BME280;65173;48.066;20.976;2023-09-07T05:29:29;101224.19;;;16.08;100.00
76124;BME280;65173;48.066;20.976;2023-09-07T05:32:33;101231.13;;;16.51;100.00
76124;BME280;65173;48.066;20.976;2023-09-07T05:35:35;101240.41;;;16.83;100.00
76124;BME280;65173;48.066;20.976;2023-09-07T05:38:38;101234.91;;;17.24;100.00
76124;BME280;65173;48.066;20.976;2023-09-07T05:41:41;101231.34;;;17.57;100.00
76124;BME280;65173;48.066;20.976;2023-09-07T05:44:44;101239.25;;;17.86;100.00
76124;BME280;65173;48.066;20.976;2023-09-07T05:47:46;101238.78;;;18.09;100.00
76124;BME280;65173;48.066;20.976;2023-09-07T05:50:49;101236.06;;;17.96;100.00
76124;BME280;65173;48.066;20.976;2023-09-07T05:53:51;101233.72;;;18.07;100.00
76124;BME280;65173;48.066;20.976;2023-09-07T05:56:54;101239.22;;;17.98;100.00
76124;BME280;65173;48.066;20.976;2023-09-07T05:59:56;101234.50;;;18.08;100.00
76124;BME280;65173;48.066;20.976;2023-09-07T06:03:00;101245.03;;;18.13;100.00
76124;BME280;65173;48.066;20.976;2023-09-07T06:06:03;101240.28;;;18.34;100.00
76124;BME280;65173;48.066;20.976;2023-09-07T06:09:05;101246.44;;;18.59;100.00
76124;BME280;65173;48.066;20.976;2023-09-07T06:12:08;101247.88;;;19.12;100.00
76124;BME280;65173;48.066;20.976;2023-09-07T06:15:11;101247.75;;;19.52;100.00
76124;BME280;65173;48.066;20.976;2023-09-07T06:18:14;101258.03;;;19.78;100.00
76124;BME280;65173;48.066;20.976;2023-09-07T06:21:17;101257.56;;;19.92;100.00
76124;BME280;65173;48.066;20.976;2023-09-07T06:24:21;101248.00;;;20.49;100.00
76124;BME280;65173;48.066;20.976;2023-09-07T06:27:24;101247.63;;;20.69;100.00
76124;BME280;65173;48.066;20.976;2023-09-07T06:30:26;101250.63;;;20.84;100.00
76124;BME280;65173;48.066;20.976;2023-09-07T06:33:29;101243.59;;;21.21;100.00
76124;BME280;65173;48.066;20.976;2023-09-07T06:36:31;101240.31;;;21.12;100.00
76124;BME280;65173;48.066;20.976;2023-09-07T06:39:48;101247.16;;;21.25;100.00
76124;BME280;65173;48.066;20.976;2023-09-07T06:42:51;101248.72;;;21.26;100.00
76124;BME280;65173;48.066;20.976;2023-09-07T06:46:06;101265.50;;;21.81;100.00
76124;BME280;65173;48.066;20.976;2023-09-07T06:49:09;101257.78;;;22.09;98.43
76124;BME280;65173;48.066;20.976;2023-09-07T06:52:12;101266.03;;;22.46;95.32
76124;BME280;65173;48.066;20.976;2023-09-07T06:55:15;101261.91;;;22.60;94.73
76124;BME280;65173;48.066;20.976;2023-09-07T06:58:19;101269.81;;;23.02;90.96
76124;BME280;65173;48.066;20.976;2023-09-07T07:01:22;101277.84;;;23.28;91.44
76124;BME280;65173;48.066;20.976;2023-09-07T07:04:24;101280.69;;;23.42;90.67
76124;BME280;65173;48.066;20.976;2023-09-07T07:07:28;101276.53;;;23.56;92.84
76124;BME280;65173;48.066;20.976;2023-09-07T07:10:31;101276.47;;;24.00;87.25
76124;BME280;65173;48.066;20.976;2023-09-07T07:13:34;101277.38;;;24.21;86.05
76124;BME280;65173;48.066;20.976;2023-09-07T07:16:38;101272.59;;;24.91;76.26
76124;BME280;65173;48.066;20.976;2023-09-07T07:19:40;101266.06;;;25.13;73.43
76124;BME280;65173;48.066;20.976;2023-09-07T07:22:45;101268.03;;;25.41;67.27
76124;BME280;65173;48.066;20.976;2023-09-07T07:25:50;101272.31;;;25.88;66.92
76124;BME280;65173;48.066;20.976;2023-09-07T07:28:54;101272.59;;;26.37;67.48
76124;BME280;65173;48.066;20.976;2023-09-07T07:31:57;101270.16;;;26.60;69.28
76124;BME280;65173;48.066;20.976;2023-09-07T07:35:00;101271.44;;;27.14;62.37
76124;BME280;65173;48.066;20.976;2023-09-07T07:42:11;101272.53;;;27.76;61.46
76124;BME280;65173;48.066;20.976;2023-09-07T07:45:16;101270.03;;;27.88;57.64
76124;BME280;65173;48.066;20.976;2023-09-07T07:48:22;101278.34;;;28.15;59.92
76124;BME280;65173;48.066;20.976;2023-09-07T07:51:25;101271.88;;;28.36;53.17
76124;BME280;65173;48.066;20.976;2023-09-07T07:54:30;101277.31;;;28.70;52.30
76124;BME280;65173;48.066;20.976;2023-09-07T07:57:36;101272.69;;;28.94;58.93
76124;BME280;65173;48.066;20.976;2023-09-07T08:00:39;101272.22;;;29.26;49.85
76124;BME280;65173;48.066;20.976;2023-09-07T08:03:53;101267.81;;;29.32;49.17
76124;BME280;65173;48.066;20.976;2023-09-07T08:06:58;101269.78;;;29.78;48.84
76124;BME280;65173;48.066;20.976;2023-09-07T08:10:07;101272.00;;;29.63;47.50
76124;BME280;65173;48.066;20.976;2023-09-07T08:13:11;101262.94;;;30.10;51.47
76124;BME280;65173;48.066;20.976;2023-09-07T08:16:15;101261.59;;;29.94;46.46
76124;BME280;65173;48.066;20.976;2023-09-07T08:19:17;101273.47;;;30.70;44.99
76124;BME280;65173;48.066;20.976;2023-09-07T08:22:20;101266.44;;;30.86;43.79
76124;BME280;65173;48.066;20.976;2023-09-07T08:25:22;101259.88;;;31.16;41.69
76124;BME280;65173;48.066;20.976;2023-09-07T08:28:25;101261.97;;;30.92;41.74
76124;BME280;65173;48.066;20.976;2023-09-07T08:31:29;101251.06;;;31.37;43.00
76124;BME280;65173;48.066;20.976;2023-09-07T08:38:41;101263.16;;;31.88;43.33
76124;BME280;65173;48.066;20.976;2023-09-07T08:41:44;101257.53;;;31.92;43.32
76124;BME280;65173;48.066;20.976;2023-09-07T08:45:04;101257.88;;;32.23;41.30
76124;BME280;65173;48.066;20.976;2023-09-07T08:48:10;101263.56;;;32.57;42.52
76124;BME280;65173;48.066;20.976;2023-09-07T08:51:15;101253.63;;;32.60;40.30
76124;BME280;65173;48.066;20.976;2023-09-07T08:54:19;101259.59;;;32.84;39.21
76124;BME280;65173;48.066;20.976;2023-09-07T08:57:21;101252.75;;;32.88;39.07
76124;BME280;65173;48.066;20.976;2023-09-07T09:00:24;101246.00;;;33.02;41.98
76124;BME280;65173;48.066;20.976;2023-09-07T09:03:27;101244.16;;;32.86;38.79
76124;BME280;65173;48.066;20.976;2023-09-07T09:06:33;101243.91;;;32.55;38.91
76124;BME280;65173;48.066;20.976;2023-09-07T09:09:36;101246.19;;;33.20;40.45
76124;BME280;65173;48.066;20.976;2023-09-07T09:12:46;101242.53;;;33.23;39.14
76124;BME280;65173;48.066;20.976;2023-09-07T09:15:52;101229.16;;;33.34;38.08
76124;BME280;65173;48.066;20.976;2023-09-07T09:18:56;101229.91;;;33.48;37.44
76124;BME280;65173;48.066;20.976;2023-09-07T09:22:00;101219.16;;;33.71;37.46
76124;BME280;65173;48.066;20.976;2023-09-07T09:25:04;101225.34;;;33.54;36.11
76124;BME280;65173;48.066;20.976;2023-09-07T09:28:09;101220.22;;;33.30;34.93
76124;BME280;65173;48.066;20.976;2023-09-07T09:31:13;101213.63;;;33.71;34.21
76124;BME280;65173;48.066;20.976;2023-09-07T09:34:15;101209.66;;;33.03;33.21
76124;BME280;65173;48.066;20.976;2023-09-07T09:37:18;101215.06;;;33.76;35.05
76124;BME280;65173;48.066;20.976;2023-09-07T09:40:21;101206.22;;;34.03;33.26
76124;BME280;65173;48.066;20.976;2023-09-07T09:43:26;101199.47;;;34.35;32.86
76124;BME280;65173;48.066;20.976;2023-09-07T09:46:31;101205.34;;;34.37;33.62
76124;BME280;65173;48.066;20.976;2023-09-07T09:49:34;101200.25;;;34.75;34.55
76124;BME280;65173;48.066;20.976;2023-09-07T09:52:38;101200.75;;;34.83;35.86
76124;BME280;65173;48.066;20.976;2023-09-07T09:55:41;101205.25;;;35.08;36.02
76124;BME280;65173;48.066;20.976;2023-09-07T09:58:43;101209.44;;;35.22;31.76
76124;BME280;65173;48.066;20.976;2023-09-07T10:01:47;101203.09;;;35.12;30.69
76124;BME280;65173;48.066;20.976;2023-09-07T10:04:53;101203.75;;;35.25;33.44
76124;BME280;65173;48.066;20.976;2023-09-07T10:08:03;101195.84;;;34.87;31.87
76124;BME280;65173;48.066;20.976;2023-09-07T10:11:09;101196.00;;;34.93;32.16
76124;BME280;65173;48.066;20.976;2023-09-07T10:14:12;101196.75;;;34.84;34.07
76124;BME280;65173;48.066;20.976;2023-09-07T10:17:23;101192.75;;;34.85;30.94
76124;BME280;65173;48.066;20.976;2023-09-07T10:20:25;101187.84;;;34.98;32.00
76124;BME280;65173;48.066;20.976;2023-09-07T10:23:42;101187.72;;;35.20;29.93
76124;BME280;65173;48.066;20.976;2023-09-07T10:26:59;101186.78;;;35.23;32.08
76124;BME280;65173;48.066;20.976;2023-09-07T10:30:09;101181.78;;;34.72;34.05
76124;BME280;65173;48.066;20.976;2023-09-07T10:33:20;101175.09;;;34.21;30.50
76124;BME280;65173;48.066;20.976;2023-09-07T10:36:27;101166.78;;;34.61;34.75
76124;BME280;65173;48.066;20.976;2023-09-07T10:39:31;101169.00;;;33.38;31.80
76124;BME280;65173;48.066;20.976;2023-09-07T10:42:34;101167.16;;;34.32;34.55
76124;BME280;65173;48.066;20.976;2023-09-07T10:45:36;101179.22;;;34.96;31.65
76124;BME280;65173;48.066;20.976;2023-09-07T10:48:39;101169.06;;;35.11;32.18
76124;BME280;65173;48.066;20.976;2023-09-07T10:51:46;101164.38;;;34.72;32.02
76124;BME280;65173;48.066;20.976;2023-09-07T10:54:56;101165.38;;;35.14;31.81
76124;BME280;65173;48.066;20.976;2023-09-07T10:58:00;101165.88;;;35.40;30.84
76124;BME280;65173;48.066;20.976;2023-09-07T11:01:03;101166.47;;;35.63;29.09
76124;BME280;65173;48.066;20.976;2023-09-07T11:04:06;101152.00;;;35.59;30.55
76124;BME280;65173;48.066;20.976;2023-09-07T11:07:11;101152.13;;;35.82;34.12
76124;BME280;65173;48.066;20.976;2023-09-07T11:10:14;101156.13;;;35.72;30.39
76124;BME280;65173;48.066;20.976;2023-09-07T11:13:16;101158.22;;;34.28;30.26
76124;BME280;65173;48.066;20.976;2023-09-07T11:16:19;101157.09;;;34.25;35.97
76124;BME280;65173;48.066;20.976;2023-09-07T11:19:22;101157.53;;;34.45;29.17
76124;BME280;65173;48.066;20.976;2023-09-07T11:22:25;101149.81;;;34.90;31.42
76124;BME280;65173;48.066;20.976;2023-09-07T11:25:34;101146.75;;;35.15;31.58
76124;BME280;65173;48.066;20.976;2023-09-07T11:28:37;101146.72;;;34.78;31.50
76124;BME280;65173;48.066;20.976;2023-09-07T11:31:40;101150.28;;;34.88;32.51
76124;BME280;65173;48.066;20.976;2023-09-07T11:34:50;101143.19;;;34.07;32.54
76124;BME280;65173;48.066;20.976;2023-09-07T11:37:53;101148.81;;;34.25;30.92
76124;BME280;65173;48.066;20.976;2023-09-07T11:40:56;101141.41;;;34.53;31.24
76124;BME280;65173;48.066;20.976;2023-09-07T11:43:58;101144.59;;;35.19;31.83
76124;BME280;65173;48.066;20.976;2023-09-07T11:47:01;101137.66;;;34.07;32.45
76124;BME280;65173;48.066;20.976;2023-09-07T11:50:05;101137.72;;;34.25;32.56
76124;BME280;65173;48.066;20.976;2023-09-07T11:53:09;101126.75;;;34.43;34.47
76124;BME280;65173;48.066;20.976;2023-09-07T11:56:11;101125.16;;;33.93;30.76
76124;BME280;65173;48.066;20.976;2023-09-07T11:59:14;101123.38;;;34.08;30.33
76124;BME280;65173;48.066;20.976;2023-09-07T12:02:19;101136.16;;;34.15;35.46
76124;BME280;65173;48.066;20.976;2023-09-07T12:05:23;101130.50;;;33.66;32.55
76124;BME280;65173;48.066;20.976;2023-09-07T12:08:27;101124.50;;;32.64;32.65
76124;BME280;65173;48.066;20.976;2023-09-07T12:11:29;101114.94;;;33.37;33.41
76124;BME280;65173;48.066;20.976;2023-09-07T12:14:33;101120.59;;;33.56;30.17
76124;BME280;65173;48.066;20.976;2023-09-07T12:17:35;101122.75;;;32.70;30.59
76124;BME280;65173;48.066;20.976;2023-09-07T12:20:38;101118.63;;;33.22;33.57
76124;BME280;65173;48.066;20.976;2023-09-07T12:23:40;101121.44;;;34.18;34.72
76124;BME280;65173;48.066;20.976;2023-09-07T12:26:43;101117.31;;;33.92;32.75
76124;BME280;65173;48.066;20.976;2023-09-07T12:29:45;101111.59;;;31.85;34.33
76124;BME280;65173;48.066;20.976;2023-09-07T12:32:48;101115.09;;;33.21;33.14
76124;BME280;65173;48.066;20.976;2023-09-07T12:35:51;101116.56;;;32.78;31.01
76124;BME280;65173;48.066;20.976;2023-09-07T12:38:54;101102.97;;;32.84;30.03
76124;BME280;65173;48.066;20.976;2023-09-07T12:41:56;101103.06;;;33.50;34.90
76124;BME280;65173;48.066;20.976;2023-09-07T12:44:58;101106.03;;;33.86;33.42
76124;BME280;65173;48.066;20.976;2023-09-07T12:48:01;101111.38;;;34.42;34.09
76124;BME280;65173;48.066;20.976;2023-09-07T12:51:04;101104.50;;;34.16;32.25
76124;BME280;65173;48.066;20.976;2023-09-07T12:54:07;101098.44;;;33.99;30.18
76124;BME280;65173;48.066;20.976;2023-09-07T12:57:09;101095.38;;;33.75;26.52
76124;BME280;65173;48.066;20.976;2023-09-07T13:00:12;101093.38;;;31.74;34.22
76124;BME280;65173;48.066;20.976;2023-09-07T13:03:15;101096.06;;;32.29;28.83
76124;BME280;65173;48.066;20.976;2023-09-07T13:06:18;101090.66;;;31.58;29.50
76124;BME280;65173;48.066;20.976;2023-09-07T13:09:21;101093.72;;;31.48;29.38
76124;BME280;65173;48.066;20.976;2023-09-07T13:12:23;101089.41;;;32.64;30.90
76124;BME280;65173;48.066;20.976;2023-09-07T13:15:26;101090.03;;;32.21;28.21
76124;BME280;65173;48.066;20.976;2023-09-07T13:18:29;101087.34;;;31.51;33.11
76124;BME280;65173;48.066;20.976;2023-09-07T13:21:31;101084.13;;;31.68;34.21
76124;BME280;65173;48.066;20.976;2023-09-07T13:24:34;101075.84;;;31.68;34.92
76124;BME280;65173;48.066;20.976;2023-09-07T13:27:36;101074.47;;;31.60;30.52
76124;BME280;65173;48.066;20.976;2023-09-07T13:30:39;101074.28;;;31.10;31.41
76124;BME280;65173;48.066;20.976;2023-09-07T13:33:41;101070.41;;;31.36;30.09
76124;BME280;65173;48.066;20.976;2023-09-07T13:36:44;101070.28;;;30.49;32.38
76124;BME280;65173;48.066;20.976;2023-09-07T13:39:46;101059.72;;;30.64;37.97
76124;BME280;65173;48.066;20.976;2023-09-07T13:42:49;101072.31;;;31.68;35.29
76124;BME280;65173;48.066;20.976;2023-09-07T13:45:51;101068.44;;;31.78;32.13
76124;BME280;65173;48.066;20.976;2023-09-07T13:48:54;101070.03;;;31.50;36.08
76124;BME280;65173;48.066;20.976;2023-09-07T13:51:57;101064.16;;;32.15;33.54
76124;BME280;65173;48.066;20.976;2023-09-07T13:55:00;101059.63;;;31.96;31.09
76124;BME280;65173;48.066;20.976;2023-09-07T13:58:02;101060.63;;;31.89;32.45
76124;BME280;65173;48.066;20.976;2023-09-07T14:01:05;101051.25;;;31.87;32.33
76124;BME280;65173;48.066;20.976;2023-09-07T14:04:07;101056.19;;;31.25;32.76
76124;BME280;65173;48.066;20.976;2023-09-07T14:07:10;101056.47;;;30.69;34.91
76124;BME280;65173;48.066;20.976;2023-09-07T14:10:12;101047.50;;;30.16;35.52
76124;BME280;65173;48.066;20.976;2023-09-07T14:13:18;101046.31;;;30.66;35.70
76124;BME280;65173;48.066;20.976;2023-09-07T14:16:21;101047.31;;;30.88;36.62
76124;BME280;65173;48.066;20.976;2023-09-07T14:19:24;101045.88;;;30.35;34.21
76124;BME280;65173;48.066;20.976;2023-09-07T14:22:29;101040.91;;;29.58;35.63
76124;BME280;65173;48.066;20.976;2023-09-07T14:25:31;101038.03;;;29.45;36.55
76124;BME280;65173;48.066;20.976;2023-09-07T14:28:34;101036.59;;;29.57;36.49
76124;BME280;65173;48.066;20.976;2023-09-07T14:31:36;101033.72;;;29.64;36.07
76124;BME280;65173;48.066;20.976;2023-09-07T14:34:39;101022.88;;;29.37;36.40
76124;BME280;65173;48.066;20.976;2023-09-07T14:37:41;101024.34;;;29.61;39.79
76124;BME280;65173;48.066;20.976;2023-09-07T14:40:44;101032.81;;;29.70;40.61
76124;BME280;65173;48.066;20.976;2023-09-07T14:43:48;101022.03;;;29.60;38.45
76124;BME280;65173;48.066;20.976;2023-09-07T14:46:51;101030.75;;;29.35;39.60
76124;BME280;65173;48.066;20.976;2023-09-07T14:49:53;101028.31;;;29.41;37.93
76124;BME280;65173;48.066;20.976;2023-09-07T14:52:56;101020.25;;;28.90;39.29
76124;BME280;65173;48.066;20.976;2023-09-07T14:55:58;101023.19;;;28.80;42.61
76124;BME280;65173;48.066;20.976;2023-09-07T14:59:02;101023.28;;;28.96;40.86
76124;BME280;65173;48.066;20.976;2023-09-07T15:02:05;101024.25;;;28.86;40.59
76124;BME280;65173;48.066;20.976;2023-09-07T15:05:08;101022.28;;;28.86;42.82
76124;BME280;65173;48.066;20.976;2023-09-07T15:08:10;101020.53;;;28.96;41.02
76124;BME280;65173;48.066;20.976;2023-09-07T15:11:13;101023.94;;;28.33;41.35
76124;BME280;65173;48.066;20.976;2023-09-07T15:14:15;101020.78;;;28.35;40.83
76124;BME280;65173;48.066;20.976;2023-09-07T15:17:18;101021.94;;;28.11;41.42
76124;BME280;65173;48.066;20.976;2023-09-07T15:20:20;101024.06;;;28.26;43.78
76124;BME280;65173;48.066;20.976;2023-09-07T15:23:23;101024.09;;;28.23;40.17
76124;BME280;65173;48.066;20.976;2023-09-07T15:26:26;101017.63;;;28.37;42.37
76124;BME280;65173;48.066;20.976;2023-09-07T15:29:28;101020.78;;;28.35;45.53
76124;BME280;65173;48.066;20.976;2023-09-07T15:32:31;101021.25;;;28.03;41.96
76124;BME280;65173;48.066;20.976;2023-09-07T15:35:33;101018.63;;;27.65;42.01
76124;BME280;65173;48.066;20.976;2023-09-07T15:38:36;101016.00;;;27.58;44.17
76124;BME280;65173;48.066;20.976;2023-09-07T15:41:38;101016.78;;;27.55;44.80
76124;BME280;65173;48.066;20.976;2023-09-07T15:44:41;101032.38;;;27.28;44.23
76124;BME280;65173;48.066;20.976;2023-09-07T15:47:48;101033.50;;;26.96;44.15
76124;BME280;65173;48.066;20.976;2023-09-07T15:50:52;101028.56;;;27.18;45.87